x

Sheboygan, Wi (sgnw3) Weather Station

9:00am - Tue 28th Apr 2015 All times are CDT. -5 hours from GMT.

  • Wind
    11mph, 13mph gusts
  • Air Temp 42°f
  • Sea Pressure 1022.5mb
  • Sheboygan, Wi
  • Sheboygan, Wi

More Historic Weather Station data

Upgrade to MSW Pro to gain access to the past 30 days of data for over 8000 Wavebouys and Weather Stations around the globe.

Join Pro

Comparision Forecast

View Surf forecast
   
Tue 04/28 9:00am 11 13 mph 1022.5mb 42f
8:00am 10 11 mph 1022.5mb 42f
7:00am 8 9 mph 1022.3mb 41f
6:00am 7 8 mph 1022mb 39f
5:00am 14 15 mph 1021.9mb 42f
4:00am 16 17 mph 1021.7mb 42f
3:00am 13 14 mph 1021.5mb 42f
2:00am 15 17 mph 1021.5mb 43f
1:00am 13 14 mph 1021.6mb 45f
12:00am 9 10 mph 1021.5mb 43f
Mon 04/27 11:00pm 6 7 mph 1021.4mb 44f
10:00pm 6 7 mph 1021.4mb 44f
9:00pm 8 9 mph 1021mb 44f
8:00pm 8 9 mph 1020.7mb 44f
7:00pm 6 7 mph 1020.6mb 43f
6:00pm 3 5 mph 1020.9mb 43f
5:00pm  -  mph 1020.9mb 42f
4:00pm 5 6 mph 1021mb 41f
3:00pm 8 10 mph 1021.3mb 41f
2:00pm 8 9 mph 1021.6mb 41f
1:00pm 13 15 mph 1021.4mb 41f
12:00pm 16 18 mph 1021.4mb 42f
11:00am 15 16 mph 1021.2mb 42f
10:00am 10 11 mph 1020.7mb 44f
9:00am 15 16 mph 1020.1mb 45f
8:00am 18 21 mph 1020mb 44f
7:00am 18 24 mph 1019.7mb 43f
6:00am 11 14 mph 1019.6mb 41f
5:00am 13 16 mph 1019.2mb 43f
4:00am 15 17 mph 1019.3mb 44f
3:00am 16 17 mph 1019.2mb 45f
2:00am 10 13 mph 1019.2mb 43f
1:00am 9 13 mph 1019.4mb 42f
12:00am 14 16 mph 1019.3mb 41f
Sun 04/26 11:00pm 14 15 mph 1019.1mb 41f
10:00pm 16 18 mph 1019mb 41f
9:00pm 15 16 mph 1018.8mb 42f
8:00pm 9 10 mph 1018.4mb 44f
7:00pm 9 10 mph 1017.9mb 43f
6:00pm 11 13 mph 1017.8mb 42f
5:00pm 8 9 mph 1017.7mb 42f
4:00pm 7 8 mph 1017.7mb 41f
3:00pm 7 8 mph 1018.1mb 40f
2:00pm 7 8 mph 1018.5mb 40f
1:00pm 10 11 mph 1018.6mb 39f
12:00pm 16 18 mph 1018.9mb 39f
11:00am 14 16 mph 1018.9mb 39f
10:00am 11 13 mph 1018.4mb 40f
9:00am 14 16 mph 1018.2mb 40f
8:00am 16 17 mph 1017.7mb 39f
7:00am 15 17 mph 1017.2mb 38f
6:00am 11 14 mph 1016.8mb 37f
5:00am 18 21 mph 1016.5mb 39f
4:00am 18 20 mph 1016.2mb 38f
3:00am 18 20 mph 1015.5mb 38f
2:00am 17 22 mph 1015mb 39f
1:00am 20 21 mph 1014.5mb 40f
12:00am 24 26 mph 1014mb 40f
Sat 04/25 11:00pm 21 23 mph 1013.3mb 42f
10:00pm 20 22 mph 1013.3mb 41f
9:00pm 20 23 mph 1013.2mb 42f
8:00pm 23 25 mph 1012.5mb 41f
7:00pm 26 30 mph 1012.2mb 41f
6:00pm 25 30 mph 1012.2mb 40f
5:00pm 24 28 mph 1011.9mb 39f
4:00pm 23 26 mph 1012.1mb 38f
3:00pm 23 28 mph 1012mb 38f
2:00pm 23 28 mph 1012.5mb 38f
1:00pm 22 24 mph 1012.5mb 38f
12:00pm 18 21 mph 1012.9mb 38f
11:00am 15 17 mph 1013.4mb 37f
10:00am 15 17 mph 1013.2mb 38f
9:00am 15 16 mph 1013.7mb 38f
8:00am 16 18 mph 1013.6mb 38f
7:00am 15 16 mph 1013.6mb 38f
6:00am 16 18 mph 1013.5mb 38f
5:00am 13 15 mph 1013.6mb 38f
4:00am 10 11 mph 1013.4mb 38f
3:00am 6 7 mph 1013.8mb 39f
2:00am 11 13 mph 1015mb 40f
1:00am 6 7 mph 1016.2mb 39f
12:00am 11 13 mph 1016.3mb 39f
Fri 04/24 11:00pm 5 6 mph 1016.8mb 38f
10:00pm 1 3 mph 1017mb 38f
9:00pm 5 6 mph 1016.8mb 38f
8:00pm 3 5 mph 1016.6mb 37f
7:00pm 3 5 mph 1016.7mb 37f
6:00pm 9 10 mph 1016.6mb 37f
5:00pm 8 9 mph 1017.1mb 37f
4:00pm 6 7 mph 1017.3mb 38f